Terminal Aerodrome Forecast
Issued by NWS

Home | Current Version | Previous Version | Text Only | Print | Product List | Glossary On
Versions: 1 2 3 4 5 6 7 8 9 10 11 12 13 14 15 16 17 18 19
075
FTAK31 PAJN 141140
TAFAGY
TAF
PAGY 141140Z 1412/1512 VRB04KT P6SM -RA OVC045 WS020/16040KT
     FM141600 21007KT P6SM -RA OVC035 WS020/17045KT
     FM141900 21015G25KT P6SM -SHRA OVC025
     FM150200 21025G34KT P6SM -SHRA OVC040
     FM150700 21030G40KT P6SM -SHRA OVC050
      AMD LTD TO CLD VIS AND WIND=

USA.gov is the U.S. government's official web portal to all federal, state and local government web resources and services.